sensor_id;sensor_type;location;lat;lon;timestamp;P1;durP1;ratioP1;P2;durP2;ratioP2
52102;SDS011;38101;53.126;6.878;2022-09-12T00:01:51;10.60;;;8.10;;
52102;SDS011;38101;53.126;6.878;2022-09-12T00:04:17;9.98;;;7.82;;
52102;SDS011;38101;53.126;6.878;2022-09-12T00:06:43;8.45;;;7.25;;
52102;SDS011;38101;53.126;6.878;2022-09-12T00:09:10;9.07;;;7.57;;
52102;SDS011;38101;53.126;6.878;2022-09-12T00:11:38;9.00;;;8.10;;
52102;SDS011;38101;53.126;6.878;2022-09-12T00:14:07;9.77;;;8.02;;
52102;SDS011;38101;53.126;6.878;2022-09-12T00:16:34;10.65;;;8.00;;
52102;SDS011;38101;53.126;6.878;2022-09-12T00:19:01;10.88;;;8.60;;
52102;SDS011;38101;53.126;6.878;2022-09-12T00:21:28;12.20;;;8.80;;
52102;SDS011;38101;53.126;6.878;2022-09-12T00:23:56;11.18;;;8.43;;
52102;SDS011;38101;53.126;6.878;2022-09-12T00:26:22;10.25;;;8.57;;
52102;SDS011;38101;53.126;6.878;2022-09-12T00:28:48;11.73;;;8.48;;
52102;SDS011;38101;53.126;6.878;2022-09-12T00:31:15;9.68;;;8.13;;
52102;SDS011;38101;53.126;6.878;2022-09-12T00:33:42;8.95;;;7.82;;
52102;SDS011;38101;53.126;6.878;2022-09-12T00:36:10;8.68;;;7.80;;
52102;SDS011;38101;53.126;6.878;2022-09-12T00:38:38;10.52;;;7.95;;
52102;SDS011;38101;53.126;6.878;2022-09-12T00:41:16;8.55;;;7.68;;
52102;SDS011;38101;53.126;6.878;2022-09-12T00:43:45;9.27;;;7.63;;
52102;SDS011;38101;53.126;6.878;2022-09-12T00:46:30;8.13;;;7.32;;
52102;SDS011;38101;53.126;6.878;2022-09-12T00:51:40;8.65;;;7.75;;
52102;SDS011;38101;53.126;6.878;2022-09-12T00:54:14;8.88;;;7.80;;
52102;SDS011;38101;53.126;6.878;2022-09-12T00:56:43;10.13;;;8.25;;
52102;SDS011;38101;53.126;6.878;2022-09-12T00:59:13;9.20;;;8.30;;
52102;SDS011;38101;53.126;6.878;2022-09-12T01:01:42;8.77;;;7.28;;
52102;SDS011;38101;53.126;6.878;2022-09-12T01:04:10;9.38;;;8.32;;
52102;SDS011;38101;53.126;6.878;2022-09-12T01:06:39;9.15;;;8.25;;
52102;SDS011;38101;53.126;6.878;2022-09-12T01:09:06;9.00;;;8.10;;
52102;SDS011;38101;53.126;6.878;2022-09-12T01:11:35;9.40;;;8.50;;
52102;SDS011;38101;53.126;6.878;2022-09-12T01:14:03;9.07;;;8.18;;
52102;SDS011;38101;53.126;6.878;2022-09-12T01:16:28;9.70;;;8.68;;
52102;SDS011;38101;53.126;6.878;2022-09-12T01:31:07;9.82;;;8.25;;
52102;SDS011;38101;53.126;6.878;2022-09-12T01:36:57;10.20;;;8.90;;
52102;SDS011;38101;53.126;6.878;2022-09-12T01:39:27;9.90;;;9.00;;
52102;SDS011;38101;53.126;6.878;2022-09-12T01:44:56;10.20;;;9.15;;
52102;SDS011;38101;53.126;6.878;2022-09-12T01:47:42;10.52;;;9.35;;
52102;SDS011;38101;53.126;6.878;2022-09-12T01:55:23;11.30;;;10.20;;
52102;SDS011;38101;53.126;6.878;2022-09-12T01:57:55;11.43;;;10.20;;
52102;SDS011;38101;53.126;6.878;2022-09-12T02:00:38;12.30;;;11.00;;
52102;SDS011;38101;53.126;6.878;2022-09-12T02:03:10;11.57;;;10.38;;
52102;SDS011;38101;53.126;6.878;2022-09-12T02:05:48;12.65;;;10.80;;
52102;SDS011;38101;53.126;6.878;2022-09-12T02:08:19;12.00;;;10.80;;
52102;SDS011;38101;53.126;6.878;2022-09-12T02:11:01;13.30;;;11.32;;
52102;SDS011;38101;53.126;6.878;2022-09-12T02:13:33;15.40;;;11.77;;
52102;SDS011;38101;53.126;6.878;2022-09-12T02:16:17;11.73;;;10.52;;
52102;SDS011;38101;53.126;6.878;2022-09-12T02:19:00;12.50;;;11.20;;
52102;SDS011;38101;53.126;6.878;2022-09-12T02:21:31;12.05;;;10.85;;
52102;SDS011;38101;53.126;6.878;2022-09-12T02:24:01;14.77;;;11.85;;
52102;SDS011;38101;53.126;6.878;2022-09-12T02:26:33;12.65;;;11.35;;
52102;SDS011;38101;53.126;6.878;2022-09-12T02:29:02;13.80;;;11.38;;
52102;SDS011;38101;53.126;6.878;2022-09-12T02:37:09;12.55;;;11.25;;
52102;SDS011;38101;53.126;6.878;2022-09-12T02:39:48;12.10;;;10.75;;
52102;SDS011;38101;53.126;6.878;2022-09-12T02:42:14;12.48;;;11.18;;
52102;SDS011;38101;53.126;6.878;2022-09-12T02:44:39;14.27;;;11.80;;
52102;SDS011;38101;53.126;6.878;2022-09-12T02:47:19;13.35;;;11.98;;
52102;SDS011;38101;53.126;6.878;2022-09-12T02:49:51;13.20;;;11.77;;
52102;SDS011;38101;53.126;6.878;2022-09-12T02:52:18;13.30;;;11.90;;
52102;SDS011;38101;53.126;6.878;2022-09-12T02:54:44;13.77;;;12.38;;
52102;SDS011;38101;53.126;6.878;2022-09-12T02:57:17;14.18;;;12.75;;
52102;SDS011;38101;53.126;6.878;2022-09-12T02:59:44;15.02;;;13.43;;
52102;SDS011;38101;53.126;6.878;2022-09-12T03:10:06;17.40;;;14.85;;
52102;SDS011;38101;53.126;6.878;2022-09-12T03:21:38;16.60;;;14.63;;
52102;SDS011;38101;53.126;6.878;2022-09-12T03:29:37;16.75;;;15.02;;
52102;SDS011;38101;53.126;6.878;2022-09-12T03:32:05;16.52;;;14.73;;
52102;SDS011;38101;53.126;6.878;2022-09-12T03:34:31;18.08;;;15.10;;
52102;SDS011;38101;53.126;6.878;2022-09-12T03:36:57;20.00;;;16.33;;
52102;SDS011;38101;53.126;6.878;2022-09-12T03:39:23;19.10;;;16.25;;
52102;SDS011;38101;53.126;6.878;2022-09-12T03:41:51;19.40;;;16.92;;
52102;SDS011;38101;53.126;6.878;2022-09-12T03:44:17;20.30;;;18.08;;
52102;SDS011;38101;53.126;6.878;2022-09-12T03:46:43;23.52;;;18.52;;
52102;SDS011;38101;53.126;6.878;2022-09-12T03:49:09;23.60;;;19.45;;
52102;SDS011;38101;53.126;6.878;2022-09-12T03:51:36;26.50;;;20.92;;
52102;SDS011;38101;53.126;6.878;2022-09-12T03:54:02;24.13;;;19.90;;
52102;SDS011;38101;53.126;6.878;2022-09-12T03:56:29;25.05;;;21.10;;
52102;SDS011;38101;53.126;6.878;2022-09-12T03:58:54;27.23;;;21.52;;
52102;SDS011;38101;53.126;6.878;2022-09-12T04:01:20;31.58;;;23.27;;
52102;SDS011;38101;53.126;6.878;2022-09-12T04:03:47;30.20;;;22.98;;
52102;SDS011;38101;53.126;6.878;2022-09-12T04:06:15;24.95;;;20.23;;
52102;SDS011;38101;53.126;6.878;2022-09-12T04:08:43;24.20;;;20.17;;
52102;SDS011;38101;53.126;6.878;2022-09-12T04:11:13;23.42;;;20.10;;
52102;SDS011;38101;53.126;6.878;2022-09-12T04:13:40;23.30;;;20.38;;
52102;SDS011;38101;53.126;6.878;2022-09-12T04:16:06;22.83;;;19.58;;
52102;SDS011;38101;53.126;6.878;2022-09-12T04:18:33;23.05;;;18.95;;
52102;SDS011;38101;53.126;6.878;2022-09-12T04:21:06;25.00;;;19.85;;
52102;SDS011;38101;53.126;6.878;2022-09-12T04:23:34;22.50;;;19.92;;
52102;SDS011;38101;53.126;6.878;2022-09-12T04:26:00;27.20;;;19.95;;
52102;SDS011;38101;53.126;6.878;2022-09-12T04:28:27;22.73;;;19.23;;
52102;SDS011;38101;53.126;6.878;2022-09-12T04:30:53;24.05;;;19.95;;
52102;SDS011;38101;53.126;6.878;2022-09-12T04:33:19;22.55;;;19.33;;
52102;SDS011;38101;53.126;6.878;2022-09-12T04:35:46;27.20;;;20.83;;
52102;SDS011;38101;53.126;6.878;2022-09-12T04:38:12;24.52;;;19.60;;
52102;SDS011;38101;53.126;6.878;2022-09-12T04:40:38;25.35;;;19.83;;
52102;SDS011;38101;53.126;6.878;2022-09-12T04:43:04;27.38;;;21.25;;
52102;SDS011;38101;53.126;6.878;2022-09-12T04:45:31;24.40;;;20.63;;
52102;SDS011;38101;53.126;6.878;2022-09-12T04:47:57;23.73;;;20.05;;
52102;SDS011;38101;53.126;6.878;2022-09-12T04:50:23;27.95;;;21.20;;
52102;SDS011;38101;53.126;6.878;2022-09-12T04:52:49;28.45;;;20.77;;
52102;SDS011;38101;53.126;6.878;2022-09-12T04:55:16;25.08;;;20.33;;
52102;SDS011;38101;53.126;6.878;2022-09-12T04:57:42;26.70;;;21.30;;
52102;SDS011;38101;53.126;6.878;2022-09-12T05:00:08;23.90;;;20.70;;
52102;SDS011;38101;53.126;6.878;2022-09-12T05:02:39;25.45;;;20.48;;
52102;SDS011;38101;53.126;6.878;2022-09-12T05:05:05;25.50;;;20.60;;
52102;SDS011;38101;53.126;6.878;2022-09-12T05:07:32;25.60;;;21.40;;
52102;SDS011;38101;53.126;6.878;2022-09-12T05:09:57;27.83;;;21.25;;
52102;SDS011;38101;53.126;6.878;2022-09-12T05:12:24;26.45;;;21.48;;
52102;SDS011;38101;53.126;6.878;2022-09-12T05:14:50;24.42;;;20.73;;
52102;SDS011;38101;53.126;6.878;2022-09-12T05:17:16;26.52;;;21.17;;
52102;SDS011;38101;53.126;6.878;2022-09-12T05:19:41;30.10;;;22.90;;
52102;SDS011;38101;53.126;6.878;2022-09-12T05:22:07;27.38;;;21.75;;
52102;SDS011;38101;53.126;6.878;2022-09-12T05:24:33;32.85;;;25.38;;
52102;SDS011;38101;53.126;6.878;2022-09-12T05:26:59;33.65;;;25.08;;
52102;SDS011;38101;53.126;6.878;2022-09-12T05:29:27;36.60;;;26.42;;
52102;SDS011;38101;53.126;6.878;2022-09-12T05:31:53;35.63;;;25.33;;
52102;SDS011;38101;53.126;6.878;2022-09-12T05:34:19;37.80;;;27.15;;
52102;SDS011;38101;53.126;6.878;2022-09-12T05:36:45;40.58;;;29.38;;
52102;SDS011;38101;53.126;6.878;2022-09-12T05:39:11;36.40;;;27.15;;
52102;SDS011;38101;53.126;6.878;2022-09-12T05:41:37;40.67;;;27.20;;
52102;SDS011;38101;53.126;6.878;2022-09-12T05:44:03;35.90;;;25.85;;
52102;SDS011;38101;53.126;6.878;2022-09-12T05:46:34;39.28;;;27.23;;
52102;SDS011;38101;53.126;6.878;2022-09-12T05:49:03;43.38;;;28.75;;
52102;SDS011;38101;53.126;6.878;2022-09-12T05:51:31;42.53;;;27.58;;
52102;SDS011;38101;53.126;6.878;2022-09-12T05:53:59;41.47;;;28.38;;
52102;SDS011;38101;53.126;6.878;2022-09-12T05:56:26;40.88;;;29.23;;
52102;SDS011;38101;53.126;6.878;2022-09-12T05:58:55;37.13;;;27.30;;
52102;SDS011;38101;53.126;6.878;2022-09-12T06:01:23;37.03;;;28.02;;
52102;SDS011;38101;53.126;6.878;2022-09-12T06:03:51;39.83;;;27.48;;
52102;SDS011;38101;53.126;6.878;2022-09-12T06:06:20;36.90;;;26.23;;
52102;SDS011;38101;53.126;6.878;2022-09-12T06:08:48;36.28;;;26.00;;
52102;SDS011;38101;53.126;6.878;2022-09-12T06:11:18;36.25;;;25.30;;
52102;SDS011;38101;53.126;6.878;2022-09-12T06:13:47;33.75;;;24.35;;
52102;SDS011;38101;53.126;6.878;2022-09-12T06:16:14;30.80;;;23.48;;
52102;SDS011;38101;53.126;6.878;2022-09-12T06:18:50;33.55;;;24.10;;
52102;SDS011;38101;53.126;6.878;2022-09-12T06:21:21;34.17;;;24.80;;
52102;SDS011;38101;53.126;6.878;2022-09-12T06:23:48;35.15;;;25.05;;
52102;SDS011;38101;53.126;6.878;2022-09-12T06:26:15;33.03;;;24.05;;
52102;SDS011;38101;53.126;6.878;2022-09-12T06:28:43;35.05;;;24.52;;
52102;SDS011;38101;53.126;6.878;2022-09-12T06:31:10;35.83;;;25.85;;
52102;SDS011;38101;53.126;6.878;2022-09-12T06:33:38;35.35;;;26.33;;
52102;SDS011;38101;53.126;6.878;2022-09-12T06:36:10;36.58;;;26.75;;
52102;SDS011;38101;53.126;6.878;2022-09-12T06:38:48;34.80;;;25.85;;
52102;SDS011;38101;53.126;6.878;2022-09-12T06:41:22;32.17;;;24.35;;
52102;SDS011;38101;53.126;6.878;2022-09-12T06:43:49;31.92;;;24.05;;
52102;SDS011;38101;53.126;6.878;2022-09-12T06:46:15;31.88;;;24.38;;
52102;SDS011;38101;53.126;6.878;2022-09-12T06:48:41;29.55;;;23.45;;
52102;SDS011;38101;53.126;6.878;2022-09-12T06:51:10;31.25;;;24.00;;
52102;SDS011;38101;53.126;6.878;2022-09-12T06:53:37;29.98;;;24.10;;
52102;SDS011;38101;53.126;6.878;2022-09-12T06:56:14;32.30;;;24.80;;
52102;SDS011;38101;53.126;6.878;2022-09-12T06:58:44;30.52;;;23.65;;
52102;SDS011;38101;53.126;6.878;2022-09-12T07:01:12;30.52;;;24.30;;
52102;SDS011;38101;53.126;6.878;2022-09-12T07:03:45;32.53;;;24.45;;
52102;SDS011;38101;53.126;6.878;2022-09-12T07:06:16;32.58;;;24.77;;
52102;SDS011;38101;53.126;6.878;2022-09-12T07:08:43;33.38;;;25.63;;
52102;SDS011;38101;53.126;6.878;2022-09-12T07:11:14;31.50;;;24.10;;
52102;SDS011;38101;53.126;6.878;2022-09-12T07:13:43;32.38;;;24.67;;
52102;SDS011;38101;53.126;6.878;2022-09-12T07:16:10;34.75;;;25.48;;
52102;SDS011;38101;53.126;6.878;2022-09-12T07:18:37;33.17;;;24.63;;
52102;SDS011;38101;53.126;6.878;2022-09-12T07:21:04;36.90;;;27.00;;
52102;SDS011;38101;53.126;6.878;2022-09-12T07:23:32;39.80;;;27.58;;
52102;SDS011;38101;53.126;6.878;2022-09-12T07:25:58;37.40;;;26.90;;
52102;SDS011;38101;53.126;6.878;2022-09-12T07:28:25;40.28;;;27.38;;
52102;SDS011;38101;53.126;6.878;2022-09-12T07:30:53;38.13;;;26.63;;
52102;SDS011;38101;53.126;6.878;2022-09-12T07:33:20;40.30;;;27.92;;
52102;SDS011;38101;53.126;6.878;2022-09-12T07:35:47;44.10;;;28.33;;
52102;SDS011;38101;53.126;6.878;2022-09-12T07:38:14;39.95;;;26.67;;
52102;SDS011;38101;53.126;6.878;2022-09-12T07:40:40;36.80;;;26.08;;
52102;SDS011;38101;53.126;6.878;2022-09-12T07:43:06;36.00;;;26.55;;
52102;SDS011;38101;53.126;6.878;2022-09-12T07:45:32;38.72;;;27.05;;
52102;SDS011;38101;53.126;6.878;2022-09-12T07:47:58;34.22;;;23.80;;
52102;SDS011;38101;53.126;6.878;2022-09-12T07:50:23;36.60;;;25.67;;
52102;SDS011;38101;53.126;6.878;2022-09-12T07:52:49;33.80;;;25.92;;
52102;SDS011;38101;53.126;6.878;2022-09-12T07:55:19;32.88;;;24.95;;
52102;SDS011;38101;53.126;6.878;2022-09-12T07:57:49;38.05;;;26.23;;
52102;SDS011;38101;53.126;6.878;2022-09-12T08:00:15;57.13;;;28.45;;
52102;SDS011;38101;53.126;6.878;2022-09-12T08:02:42;37.55;;;26.17;;
52102;SDS011;38101;53.126;6.878;2022-09-12T08:05:08;34.42;;;25.88;;
52102;SDS011;38101;53.126;6.878;2022-09-12T08:07:33;35.30;;;25.33;;
52102;SDS011;38101;53.126;6.878;2022-09-12T08:10:00;30.05;;;23.33;;
52102;SDS011;38101;53.126;6.878;2022-09-12T08:12:29;31.63;;;23.58;;
52102;SDS011;38101;53.126;6.878;2022-09-12T08:14:56;30.85;;;22.88;;
52102;SDS011;38101;53.126;6.878;2022-09-12T08:17:22;32.53;;;24.60;;
52102;SDS011;38101;53.126;6.878;2022-09-12T08:19:48;33.30;;;24.10;;
52102;SDS011;38101;53.126;6.878;2022-09-12T08:22:13;30.35;;;23.08;;
52102;SDS011;38101;53.126;6.878;2022-09-12T08:24:39;29.58;;;23.15;;
52102;SDS011;38101;53.126;6.878;2022-09-12T08:27:05;30.15;;;21.00;;
52102;SDS011;38101;53.126;6.878;2022-09-12T08:29:32;27.23;;;21.30;;
52102;SDS011;38101;53.126;6.878;2022-09-12T08:31:58;29.02;;;21.63;;
52102;SDS011;38101;53.126;6.878;2022-09-12T08:34:23;28.90;;;20.48;;
52102;SDS011;38101;53.126;6.878;2022-09-12T08:36:50;28.75;;;20.30;;
52102;SDS011;38101;53.126;6.878;2022-09-12T08:39:18;26.17;;;19.45;;
52102;SDS011;38101;53.126;6.878;2022-09-12T08:41:46;28.10;;;19.25;;
52102;SDS011;38101;53.126;6.878;2022-09-12T08:55:05;25.27;;;18.33;;
52102;SDS011;38101;53.126;6.878;2022-09-12T08:57:47;24.60;;;16.75;;
52102;SDS011;38101;53.126;6.878;2022-09-12T09:00:13;22.77;;;17.23;;
52102;SDS011;38101;53.126;6.878;2022-09-12T09:18:36;18.73;;;14.52;;
52102;SDS011;38101;53.126;6.878;2022-09-12T09:21:07;17.65;;;14.05;;
52102;SDS011;38101;53.126;6.878;2022-09-12T09:23:42;20.23;;;14.63;;
52102;SDS011;38101;53.126;6.878;2022-09-12T09:26:14;18.67;;;13.55;;
52102;SDS011;38101;53.126;6.878;2022-09-12T09:29:03;16.38;;;13.57;;
52102;SDS011;38101;53.126;6.878;2022-09-12T09:31:38;16.77;;;12.65;;
52102;SDS011;38101;53.126;6.878;2022-09-12T09:34:24;16.45;;;13.23;;
52102;SDS011;38101;53.126;6.878;2022-09-12T09:42:51;17.60;;;13.98;;
52102;SDS011;38101;53.126;6.878;2022-09-12T09:45:35;20.83;;;14.90;;
52102;SDS011;38101;53.126;6.878;2022-09-12T09:50:51;19.00;;;14.82;;
52102;SDS011;38101;53.126;6.878;2022-09-12T09:56:18;20.15;;;15.20;;
52102;SDS011;38101;53.126;6.878;2022-09-12T09:58:51;18.63;;;15.00;;
52102;SDS011;38101;53.126;6.878;2022-09-12T10:01:17;20.27;;;14.98;;
52102;SDS011;38101;53.126;6.878;2022-09-12T10:03:50;20.73;;;15.82;;
52102;SDS011;38101;53.126;6.878;2022-09-12T10:08:43;25.05;;;16.33;;
52102;SDS011;38101;53.126;6.878;2022-09-12T10:11:19;25.30;;;18.77;;
52102;SDS011;38101;53.126;6.878;2022-09-12T10:16:21;23.20;;;17.30;;
52102;SDS011;38101;53.126;6.878;2022-09-12T10:18:50;21.80;;;16.55;;
52102;SDS011;38101;53.126;6.878;2022-09-12T10:21:18;27.50;;;20.30;;
52102;SDS011;38101;53.126;6.878;2022-09-12T10:23:45;26.92;;;19.75;;
52102;SDS011;38101;53.126;6.878;2022-09-12T10:26:13;28.42;;;19.65;;
52102;SDS011;38101;53.126;6.878;2022-09-12T10:28:43;26.92;;;19.90;;
52102;SDS011;38101;53.126;6.878;2022-09-12T10:31:14;27.83;;;19.58;;
52102;SDS011;38101;53.126;6.878;2022-09-12T10:33:47;26.38;;;20.55;;
52102;SDS011;38101;53.126;6.878;2022-09-12T10:36:20;25.92;;;19.77;;
52102;SDS011;38101;53.126;6.878;2022-09-12T10:38:57;25.13;;;18.80;;
52102;SDS011;38101;53.126;6.878;2022-09-12T10:41:25;28.20;;;20.95;;
52102;SDS011;38101;53.126;6.878;2022-09-12T10:43:51;28.05;;;19.67;;
52102;SDS011;38101;53.126;6.878;2022-09-12T10:48:43;29.05;;;20.52;;
52102;SDS011;38101;53.126;6.878;2022-09-12T10:53:49;28.08;;;20.27;;
52102;SDS011;38101;53.126;6.878;2022-09-12T10:56:18;28.73;;;19.95;;
52102;SDS011;38101;53.126;6.878;2022-09-12T11:01:27;22.55;;;16.48;;
52102;SDS011;38101;53.126;6.878;2022-09-12T11:26:22;21.77;;;15.88;;
52102;SDS011;38101;53.126;6.878;2022-09-12T11:37:19;18.58;;;12.43;;
52102;SDS011;38101;53.126;6.878;2022-09-12T11:39:50;19.25;;;13.73;;
52102;SDS011;38101;53.126;6.878;2022-09-12T11:42:20;20.50;;;13.10;;
52102;SDS011;38101;53.126;6.878;2022-09-12T11:45:33;16.50;;;12.27;;
52102;SDS011;38101;53.126;6.878;2022-09-12T11:47:48;17.42;;;11.77;;
52102;SDS011;38101;53.126;6.878;2022-09-12T11:50:23;20.75;;;12.77;;
52102;SDS011;38101;53.126;6.878;2022-09-12T11:52:54;14.80;;;11.40;;
52102;SDS011;38101;53.126;6.878;2022-09-12T11:55:31;16.52;;;11.50;;
52102;SDS011;38101;53.126;6.878;2022-09-12T11:58:14;18.15;;;11.95;;
52102;SDS011;38101;53.126;6.878;2022-09-12T12:01:16;15.38;;;11.68;;
52102;SDS011;38101;53.126;6.878;2022-09-12T12:03:40;15.15;;;11.40;;
52102;SDS011;38101;53.126;6.878;2022-09-12T12:06:11;16.65;;;11.75;;
52102;SDS011;38101;53.126;6.878;2022-09-12T12:08:45;15.45;;;10.55;;
52102;SDS011;38101;53.126;6.878;2022-09-12T12:11:13;14.70;;;11.00;;
52102;SDS011;38101;53.126;6.878;2022-09-12T12:13:50;15.35;;;10.95;;
52102;SDS011;38101;53.126;6.878;2022-09-12T12:18:54;12.68;;;9.95;;
52102;SDS011;38101;53.126;6.878;2022-09-12T12:34:31;14.93;;;11.10;;
52102;SDS011;38101;53.126;6.878;2022-09-12T12:44:56;21.70;;;10.38;;
52102;SDS011;38101;53.126;6.878;2022-09-12T12:47:24;13.27;;;11.02;;
52102;SDS011;38101;53.126;6.878;2022-09-12T12:50:41;12.98;;;8.80;;
52102;SDS011;38101;53.126;6.878;2022-09-12T12:55:29;10.45;;;8.05;;
52102;SDS011;38101;53.126;6.878;2022-09-12T12:57:58;11.30;;;8.20;;
52102;SDS011;38101;53.126;6.878;2022-09-12T13:00:32;12.23;;;8.57;;
52102;SDS011;38101;53.126;6.878;2022-09-12T13:05:36;12.82;;;9.02;;
52102;SDS011;38101;53.126;6.878;2022-09-12T13:13:51;10.27;;;8.35;;
52102;SDS011;38101;53.126;6.878;2022-09-12T13:16:54;13.68;;;9.02;;
52102;SDS011;38101;53.126;6.878;2022-09-12T13:19:25;10.10;;;8.05;;
52102;SDS011;38101;53.126;6.878;2022-09-12T13:22:01;11.25;;;9.02;;
52102;SDS011;38101;53.126;6.878;2022-09-12T13:24:30;9.20;;;7.25;;
52102;SDS011;38101;53.126;6.878;2022-09-12T13:26:57;11.40;;;7.80;;
52102;SDS011;38101;53.126;6.878;2022-09-12T13:29:23;8.88;;;7.30;;
52102;SDS011;38101;53.126;6.878;2022-09-12T13:31:54;11.38;;;8.18;;
52102;SDS011;38101;53.126;6.878;2022-09-12T13:34:29;11.63;;;8.50;;
52102;SDS011;38101;53.126;6.878;2022-09-12T13:42:24;12.43;;;8.43;;
52102;SDS011;38101;53.126;6.878;2022-09-12T13:45:10;13.02;;;9.18;;
52102;SDS011;38101;53.126;6.878;2022-09-12T13:47:44;12.40;;;8.77;;
52102;SDS011;38101;53.126;6.878;2022-09-12T13:50:31;10.00;;;6.93;;
52102;SDS011;38101;53.126;6.878;2022-09-12T13:53:15;9.57;;;7.20;;
52102;SDS011;38101;53.126;6.878;2022-09-12T13:55:47;10.02;;;6.50;;
52102;SDS011;38101;53.126;6.878;2022-09-12T13:58:20;10.05;;;7.20;;
52102;SDS011;38101;53.126;6.878;2022-09-12T14:01:01;9.32;;;6.97;;
52102;SDS011;38101;53.126;6.878;2022-09-12T14:03:32;10.35;;;7.43;;
52102;SDS011;38101;53.126;6.878;2022-09-12T14:06:21;11.43;;;8.40;;
52102;SDS011;38101;53.126;6.878;2022-09-12T14:08:49;11.35;;;8.32;;
52102;SDS011;38101;53.126;6.878;2022-09-12T14:11:26;13.80;;;9.10;;
52102;SDS011;38101;53.126;6.878;2022-09-12T14:13:53;10.48;;;8.13;;
52102;SDS011;38101;53.126;6.878;2022-09-12T14:16:19;12.32;;;9.68;;
52102;SDS011;38101;53.126;6.878;2022-09-12T14:18:47;16.33;;;9.68;;
52102;SDS011;38101;53.126;6.878;2022-09-12T14:21:33;10.52;;;8.80;;
52102;SDS011;38101;53.126;6.878;2022-09-12T14:24:00;13.90;;;8.90;;
52102;SDS011;38101;53.126;6.878;2022-09-12T14:26:29;11.70;;;8.43;;
52102;SDS011;38101;53.126;6.878;2022-09-12T14:28:59;11.55;;;8.05;;
52102;SDS011;38101;53.126;6.878;2022-09-12T14:31:29;10.10;;;8.48;;
52102;SDS011;38101;53.126;6.878;2022-09-12T14:34:14;11.25;;;9.20;;
52102;SDS011;38101;53.126;6.878;2022-09-12T14:36:42;12.20;;;9.23;;
52102;SDS011;38101;53.126;6.878;2022-09-12T14:41:42;12.60;;;9.32;;
52102;SDS011;38101;53.126;6.878;2022-09-12T14:44:18;11.02;;;9.05;;
52102;SDS011;38101;53.126;6.878;2022-09-12T14:46:48;10.20;;;8.93;;
52102;SDS011;38101;53.126;6.878;2022-09-12T14:49:31;8.93;;;7.53;;
52102;SDS011;38101;53.126;6.878;2022-09-12T14:52:02;11.50;;;8.68;;
52102;SDS011;38101;53.126;6.878;2022-09-12T14:57:15;9.10;;;8.05;;
52102;SDS011;38101;53.126;6.878;2022-09-12T15:00:04;7.55;;;6.15;;
52102;SDS011;38101;53.126;6.878;2022-09-12T15:02:35;6.97;;;6.13;;
52102;SDS011;38101;53.126;6.878;2022-09-12T15:10:13;6.78;;;5.13;;
52102;SDS011;38101;53.126;6.878;2022-09-12T15:12:40;7.57;;;5.50;;
52102;SDS011;38101;53.126;6.878;2022-09-12T15:15:13;6.93;;;5.40;;
52102;SDS011;38101;53.126;6.878;2022-09-12T15:17:41;6.15;;;4.88;;
52102;SDS011;38101;53.126;6.878;2022-09-12T15:20:07;6.45;;;4.85;;
52102;SDS011;38101;53.126;6.878;2022-09-12T15:22:34;6.47;;;4.90;;
52102;SDS011;38101;53.126;6.878;2022-09-12T15:25:02;6.88;;;5.35;;
52102;SDS011;38101;53.126;6.878;2022-09-12T15:27:28;7.97;;;5.55;;
52102;SDS011;38101;53.126;6.878;2022-09-12T15:29:54;9.43;;;5.55;;
52102;SDS011;38101;53.126;6.878;2022-09-12T15:32:27;7.55;;;5.43;;
52102;SDS011;38101;53.126;6.878;2022-09-12T15:34:54;6.43;;;5.75;;
52102;SDS011;38101;53.126;6.878;2022-09-12T15:37:20;7.97;;;5.97;;
52102;SDS011;38101;53.126;6.878;2022-09-12T15:39:47;8.40;;;5.85;;
52102;SDS011;38101;53.126;6.878;2022-09-12T15:42:14;7.80;;;6.03;;
52102;SDS011;38101;53.126;6.878;2022-09-12T15:44:42;7.35;;;5.38;;
52102;SDS011;38101;53.126;6.878;2022-09-12T15:47:11;7.60;;;5.63;;
52102;SDS011;38101;53.126;6.878;2022-09-12T15:49:40;8.05;;;6.05;;
52102;SDS011;38101;53.126;6.878;2022-09-12T15:52:06;7.68;;;5.90;;
52102;SDS011;38101;53.126;6.878;2022-09-12T15:54:37;8.77;;;6.22;;
52102;SDS011;38101;53.126;6.878;2022-09-12T15:57:03;9.13;;;5.85;;
52102;SDS011;38101;53.126;6.878;2022-09-12T15:59:29;7.55;;;6.30;;
52102;SDS011;38101;53.126;6.878;2022-09-12T16:01:55;7.15;;;5.80;;
52102;SDS011;38101;53.126;6.878;2022-09-12T16:04:22;7.05;;;5.85;;
52102;SDS011;38101;53.126;6.878;2022-09-12T16:06:49;7.10;;;5.50;;
52102;SDS011;38101;53.126;6.878;2022-09-12T16:09:16;6.90;;;5.93;;
52102;SDS011;38101;53.126;6.878;2022-09-12T16:11:42;13.35;;;6.13;;
52102;SDS011;38101;53.126;6.878;2022-09-12T16:14:09;6.63;;;5.43;;
52102;SDS011;38101;53.126;6.878;2022-09-12T16:16:38;7.15;;;5.32;;
52102;SDS011;38101;53.126;6.878;2022-09-12T16:19:05;6.63;;;4.90;;
52102;SDS011;38101;53.126;6.878;2022-09-12T16:21:31;6.50;;;5.30;;
52102;SDS011;38101;53.126;6.878;2022-09-12T16:23:56;6.38;;;4.63;;
52102;SDS011;38101;53.126;6.878;2022-09-12T16:26:22;5.80;;;4.57;;
52102;SDS011;38101;53.126;6.878;2022-09-12T16:28:55;6.65;;;4.80;;
52102;SDS011;38101;53.126;6.878;2022-09-12T16:31:21;6.80;;;4.88;;
52102;SDS011;38101;53.126;6.878;2022-09-12T16:33:47;5.40;;;4.28;;
52102;SDS011;38101;53.126;6.878;2022-09-12T16:36:14;5.68;;;4.57;;
52102;SDS011;38101;53.126;6.878;2022-09-12T16:38:42;6.20;;;4.90;;
52102;SDS011;38101;53.126;6.878;2022-09-12T16:41:10;4.82;;;4.18;;
52102;SDS011;38101;53.126;6.878;2022-09-12T16:43:36;5.78;;;4.40;;
52102;SDS011;38101;53.126;6.878;2022-09-12T16:46:06;6.25;;;4.20;;
52102;SDS011;38101;53.126;6.878;2022-09-12T16:48:36;6.07;;;4.47;;
52102;SDS011;38101;53.126;6.878;2022-09-12T16:51:05;4.97;;;4.25;;
52102;SDS011;38101;53.126;6.878;2022-09-12T16:53:32;4.97;;;4.47;;
52102;SDS011;38101;53.126;6.878;2022-09-12T16:55:59;5.10;;;3.83;;
52102;SDS011;38101;53.126;6.878;2022-09-12T16:58:26;5.18;;;4.30;;
52102;SDS011;38101;53.126;6.878;2022-09-12T17:00:59;5.32;;;4.18;;
52102;SDS011;38101;53.126;6.878;2022-09-12T17:03:26;5.90;;;4.20;;
52102;SDS011;38101;53.126;6.878;2022-09-12T17:06:02;7.32;;;4.63;;
52102;SDS011;38101;53.126;6.878;2022-09-12T17:08:35;6.97;;;4.57;;
52102;SDS011;38101;53.126;6.878;2022-09-12T17:11:06;6.55;;;4.82;;
52102;SDS011;38101;53.126;6.878;2022-09-12T17:13:33;5.93;;;4.38;;
52102;SDS011;38101;53.126;6.878;2022-09-12T17:15:59;5.78;;;4.35;;
52102;SDS011;38101;53.126;6.878;2022-09-12T17:18:30;5.65;;;4.55;;
52102;SDS011;38101;53.126;6.878;2022-09-12T17:20:55;5.18;;;4.25;;
52102;SDS011;38101;53.126;6.878;2022-09-12T17:23:21;4.70;;;4.20;;
52102;SDS011;38101;53.126;6.878;2022-09-12T17:25:47;5.85;;;4.13;;
52102;SDS011;38101;53.126;6.878;2022-09-12T17:28:14;5.97;;;4.30;;
52102;SDS011;38101;53.126;6.878;2022-09-12T17:30:40;6.72;;;4.72;;
52102;SDS011;38101;53.126;6.878;2022-09-12T17:33:06;7.75;;;4.28;;
52102;SDS011;38101;53.126;6.878;2022-09-12T17:35:35;6.43;;;4.70;;
52102;SDS011;38101;53.126;6.878;2022-09-12T17:38:02;5.57;;;4.30;;
52102;SDS011;38101;53.126;6.878;2022-09-12T17:40:28;5.15;;;4.28;;
52102;SDS011;38101;53.126;6.878;2022-09-12T17:42:55;5.93;;;4.20;;
52102;SDS011;38101;53.126;6.878;2022-09-12T17:45:21;6.70;;;4.90;;
52102;SDS011;38101;53.126;6.878;2022-09-12T17:47:47;6.35;;;4.80;;
52102;SDS011;38101;53.126;6.878;2022-09-12T17:50:13;5.35;;;4.20;;
52102;SDS011;38101;53.126;6.878;2022-09-12T17:52:42;6.47;;;5.10;;